sensor_id;sensor_type;location;lat;lon;timestamp;P1;durP1;ratioP1;P2;durP2;ratioP2
19043;SDS011;9654;52.302;8.120;2023-02-23T00:01:33;62.00;;;32.97;;
19043;SDS011;9654;52.302;8.120;2023-02-23T00:04:01;58.97;;;32.27;;
19043;SDS011;9654;52.302;8.120;2023-02-23T00:06:29;68.07;;;33.20;;
19043;SDS011;9654;52.302;8.120;2023-02-23T00:08:57;66.03;;;33.40;;
19043;SDS011;9654;52.302;8.120;2023-02-23T00:11:25;60.37;;;34.00;;
19043;SDS011;9654;52.302;8.120;2023-02-23T00:13:53;70.87;;;35.37;;
19043;SDS011;9654;52.302;8.120;2023-02-23T00:16:22;67.53;;;35.60;;
19043;SDS011;9654;52.302;8.120;2023-02-23T00:18:51;72.70;;;35.63;;
19043;SDS011;9654;52.302;8.120;2023-02-23T00:21:21;70.97;;;35.20;;
19043;SDS011;9654;52.302;8.120;2023-02-23T00:23:50;67.40;;;35.17;;
19043;SDS011;9654;52.302;8.120;2023-02-23T00:26:18;70.23;;;35.70;;
19043;SDS011;9654;52.302;8.120;2023-02-23T00:28:46;63.70;;;35.70;;
19043;SDS011;9654;52.302;8.120;2023-02-23T00:31:15;65.93;;;35.17;;
19043;SDS011;9654;52.302;8.120;2023-02-23T00:33:43;77.57;;;38.10;;
19043;SDS011;9654;52.302;8.120;2023-02-23T00:36:10;77.43;;;40.03;;
19043;SDS011;9654;52.302;8.120;2023-02-23T00:38:39;78.37;;;39.17;;
19043;SDS011;9654;52.302;8.120;2023-02-23T00:41:07;73.50;;;36.80;;
19043;SDS011;9654;52.302;8.120;2023-02-23T00:43:35;78.97;;;40.03;;
19043;SDS011;9654;52.302;8.120;2023-02-23T00:46:04;72.90;;;37.90;;
19043;SDS011;9654;52.302;8.120;2023-02-23T00:48:31;83.63;;;39.20;;
19043;SDS011;9654;52.302;8.120;2023-02-23T00:51:00;77.20;;;39.77;;
19043;SDS011;9654;52.302;8.120;2023-02-23T00:53:28;79.73;;;39.07;;
19043;SDS011;9654;52.302;8.120;2023-02-23T00:55:55;77.50;;;38.37;;
19043;SDS011;9654;52.302;8.120;2023-02-23T00:58:22;81.60;;;40.97;;
19043;SDS011;9654;52.302;8.120;2023-02-23T01:00:50;79.77;;;39.17;;
19043;SDS011;9654;52.302;8.120;2023-02-23T01:03:17;94.00;;;40.50;;
19043;SDS011;9654;52.302;8.120;2023-02-23T01:05:44;83.50;;;41.17;;
19043;SDS011;9654;52.302;8.120;2023-02-23T01:08:15;95.03;;;42.50;;
19043;SDS011;9654;52.302;8.120;2023-02-23T01:10:42;97.97;;;42.10;;
19043;SDS011;9654;52.302;8.120;2023-02-23T01:13:16;87.50;;;40.93;;
19043;SDS011;9654;52.302;8.120;2023-02-23T01:15:43;96.90;;;42.50;;
19043;SDS011;9654;52.302;8.120;2023-02-23T01:18:12;90.77;;;41.77;;
19043;SDS011;9654;52.302;8.120;2023-02-23T01:20:39;96.13;;;43.70;;
19043;SDS011;9654;52.302;8.120;2023-02-23T01:23:06;98.37;;;43.60;;
19043;SDS011;9654;52.302;8.120;2023-02-23T01:25:35;97.27;;;43.60;;
19043;SDS011;9654;52.302;8.120;2023-02-23T01:28:02;94.20;;;42.10;;
19043;SDS011;9654;52.302;8.120;2023-02-23T01:30:29;92.17;;;41.33;;
19043;SDS011;9654;52.302;8.120;2023-02-23T01:32:56;97.33;;;42.47;;
19043;SDS011;9654;52.302;8.120;2023-02-23T01:35:24;103.97;;;43.20;;
19043;SDS011;9654;52.302;8.120;2023-02-23T01:37:51;100.67;;;44.93;;
19043;SDS011;9654;52.302;8.120;2023-02-23T01:40:19;101.33;;;44.87;;
19043;SDS011;9654;52.302;8.120;2023-02-23T01:42:55;98.90;;;45.53;;
19043;SDS011;9654;52.302;8.120;2023-02-23T01:45:26;106.63;;;45.33;;
19043;SDS011;9654;52.302;8.120;2023-02-23T01:47:55;94.43;;;43.97;;
19043;SDS011;9654;52.302;8.120;2023-02-23T01:50:26;98.20;;;44.40;;
19043;SDS011;9654;52.302;8.120;2023-02-23T01:52:54;96.33;;;43.03;;
19043;SDS011;9654;52.302;8.120;2023-02-23T01:55:23;93.77;;;43.57;;
19043;SDS011;9654;52.302;8.120;2023-02-23T01:57:55;96.43;;;44.03;;
19043;SDS011;9654;52.302;8.120;2023-02-23T02:00:31;98.23;;;43.70;;
19043;SDS011;9654;52.302;8.120;2023-02-23T02:03:01;97.73;;;42.93;;
19043;SDS011;9654;52.302;8.120;2023-02-23T02:05:33;94.47;;;42.70;;
19043;SDS011;9654;52.302;8.120;2023-02-23T02:08:03;99.00;;;43.73;;
19043;SDS011;9654;52.302;8.120;2023-02-23T02:10:34;101.10;;;44.47;;
19043;SDS011;9654;52.302;8.120;2023-02-23T02:13:10;96.57;;;44.77;;
19043;SDS011;9654;52.302;8.120;2023-02-23T02:15:48;101.03;;;46.50;;
19043;SDS011;9654;52.302;8.120;2023-02-23T02:18:31;97.60;;;44.47;;
19043;SDS011;9654;52.302;8.120;2023-02-23T02:27:15;98.03;;;44.23;;
19043;SDS011;9654;52.302;8.120;2023-02-23T02:30:06;90.70;;;41.60;;
19043;SDS011;9654;52.302;8.120;2023-02-23T02:38:51;99.50;;;43.67;;
19043;SDS011;9654;52.302;8.120;2023-02-23T02:41:33;100.07;;;44.77;;
19043;SDS011;9654;52.302;8.120;2023-02-23T02:44:09;96.70;;;43.73;;
19043;SDS011;9654;52.302;8.120;2023-02-23T02:46:40;95.57;;;46.60;;
19043;SDS011;9654;52.302;8.120;2023-02-23T02:49:14;89.87;;;41.67;;
19043;SDS011;9654;52.302;8.120;2023-02-23T02:51:51;87.30;;;41.87;;
19043;SDS011;9654;52.302;8.120;2023-02-23T02:54:25;100.80;;;45.73;;
19043;SDS011;9654;52.302;8.120;2023-02-23T02:56:56;91.53;;;43.50;;
19043;SDS011;9654;52.302;8.120;2023-02-23T02:59:26;93.30;;;41.70;;
19043;SDS011;9654;52.302;8.120;2023-02-23T03:02:12;92.17;;;44.10;;
19043;SDS011;9654;52.302;8.120;2023-02-23T03:04:59;95.83;;;44.07;;
19043;SDS011;9654;52.302;8.120;2023-02-23T03:07:44;87.73;;;41.33;;
19043;SDS011;9654;52.302;8.120;2023-02-23T03:10:39;90.43;;;42.83;;
19043;SDS011;9654;52.302;8.120;2023-02-23T03:13:30;92.10;;;42.97;;
19043;SDS011;9654;52.302;8.120;2023-02-23T03:16:22;98.00;;;43.10;;
19043;SDS011;9654;52.302;8.120;2023-02-23T03:19:14;93.57;;;41.43;;
19043;SDS011;9654;52.302;8.120;2023-02-23T03:22:06;91.50;;;43.80;;
19043;SDS011;9654;52.302;8.120;2023-02-23T03:24:55;88.20;;;41.83;;
19043;SDS011;9654;52.302;8.120;2023-02-23T03:27:47;98.20;;;45.53;;
19043;SDS011;9654;52.302;8.120;2023-02-23T03:30:39;91.57;;;41.87;;
19043;SDS011;9654;52.302;8.120;2023-02-23T03:33:31;86.33;;;39.93;;
19043;SDS011;9654;52.302;8.120;2023-02-23T03:36:23;90.03;;;42.07;;
19043;SDS011;9654;52.302;8.120;2023-02-23T03:39:10;89.27;;;43.43;;
19043;SDS011;9654;52.302;8.120;2023-02-23T03:42:02;93.47;;;43.27;;
19043;SDS011;9654;52.302;8.120;2023-02-23T03:44:52;94.87;;;44.60;;
19043;SDS011;9654;52.302;8.120;2023-02-23T03:47:40;88.57;;;41.53;;
19043;SDS011;9654;52.302;8.120;2023-02-23T03:50:29;92.00;;;41.77;;
19043;SDS011;9654;52.302;8.120;2023-02-23T03:53:17;96.27;;;44.47;;
19043;SDS011;9654;52.302;8.120;2023-02-23T03:56:05;94.47;;;45.53;;
19043;SDS011;9654;52.302;8.120;2023-02-23T03:58:54;87.40;;;40.53;;
19043;SDS011;9654;52.302;8.120;2023-02-23T04:01:43;101.73;;;43.97;;
19043;SDS011;9654;52.302;8.120;2023-02-23T04:04:28;98.43;;;44.33;;
19043;SDS011;9654;52.302;8.120;2023-02-23T04:07:14;93.10;;;43.43;;
19043;SDS011;9654;52.302;8.120;2023-02-23T04:10:01;92.87;;;44.20;;
19043;SDS011;9654;52.302;8.120;2023-02-23T04:12:49;106.93;;;45.20;;
19043;SDS011;9654;52.302;8.120;2023-02-23T04:15:40;97.37;;;43.33;;
19043;SDS011;9654;52.302;8.120;2023-02-23T04:18:19;104.80;;;44.50;;
19043;SDS011;9654;52.302;8.120;2023-02-23T04:20:49;104.93;;;46.30;;
19043;SDS011;9654;52.302;8.120;2023-02-23T04:23:16;98.93;;;44.83;;
19043;SDS011;9654;52.302;8.120;2023-02-23T04:25:43;100.67;;;44.27;;
19043;SDS011;9654;52.302;8.120;2023-02-23T04:28:09;107.13;;;45.43;;
19043;SDS011;9654;52.302;8.120;2023-02-23T04:30:36;94.77;;;43.30;;
19043;SDS011;9654;52.302;8.120;2023-02-23T04:33:03;94.53;;;42.17;;
19043;SDS011;9654;52.302;8.120;2023-02-23T04:35:31;92.17;;;42.23;;
19043;SDS011;9654;52.302;8.120;2023-02-23T04:37:58;97.67;;;43.60;;
19043;SDS011;9654;52.302;8.120;2023-02-23T04:40:26;100.00;;;43.17;;
19043;SDS011;9654;52.302;8.120;2023-02-23T04:42:53;99.43;;;42.67;;
19043;SDS011;9654;52.302;8.120;2023-02-23T04:45:20;106.53;;;45.60;;
19043;SDS011;9654;52.302;8.120;2023-02-23T04:47:48;102.07;;;43.33;;
19043;SDS011;9654;52.302;8.120;2023-02-23T04:50:16;101.97;;;44.53;;
19043;SDS011;9654;52.302;8.120;2023-02-23T04:52:44;103.33;;;44.90;;
19043;SDS011;9654;52.302;8.120;2023-02-23T04:55:14;111.13;;;47.07;;
19043;SDS011;9654;52.302;8.120;2023-02-23T04:57:43;103.63;;;43.70;;
19043;SDS011;9654;52.302;8.120;2023-02-23T05:00:11;90.87;;;43.33;;
19043;SDS011;9654;52.302;8.120;2023-02-23T05:02:38;101.33;;;43.93;;
19043;SDS011;9654;52.302;8.120;2023-02-23T05:05:06;103.33;;;45.07;;
19043;SDS011;9654;52.302;8.120;2023-02-23T05:07:34;96.47;;;44.10;;
19043;SDS011;9654;52.302;8.120;2023-02-23T05:10:03;98.23;;;45.60;;
19043;SDS011;9654;52.302;8.120;2023-02-23T05:12:31;98.97;;;44.53;;
19043;SDS011;9654;52.302;8.120;2023-02-23T05:14:58;115.23;;;46.80;;
19043;SDS011;9654;52.302;8.120;2023-02-23T05:17:25;107.80;;;48.17;;
19043;SDS011;9654;52.302;8.120;2023-02-23T05:19:52;107.77;;;45.37;;
19043;SDS011;9654;52.302;8.120;2023-02-23T05:22:18;106.63;;;46.47;;
19043;SDS011;9654;52.302;8.120;2023-02-23T05:24:45;101.33;;;42.47;;
19043;SDS011;9654;52.302;8.120;2023-02-23T05:27:13;95.50;;;44.10;;
19043;SDS011;9654;52.302;8.120;2023-02-23T05:29:41;100.03;;;45.00;;
19043;SDS011;9654;52.302;8.120;2023-02-23T05:32:08;96.67;;;45.07;;
19043;SDS011;9654;52.302;8.120;2023-02-23T05:34:35;101.77;;;45.43;;
19043;SDS011;9654;52.302;8.120;2023-02-23T05:37:03;92.40;;;44.70;;
19043;SDS011;9654;52.302;8.120;2023-02-23T05:39:30;101.60;;;45.77;;
19043;SDS011;9654;52.302;8.120;2023-02-23T05:41:57;102.63;;;46.33;;
19043;SDS011;9654;52.302;8.120;2023-02-23T05:44:25;108.37;;;48.17;;
19043;SDS011;9654;52.302;8.120;2023-02-23T05:46:52;113.87;;;51.73;;
19043;SDS011;9654;52.302;8.120;2023-02-23T05:49:19;124.20;;;53.07;;
19043;SDS011;9654;52.302;8.120;2023-02-23T05:51:45;111.97;;;48.03;;
19043;SDS011;9654;52.302;8.120;2023-02-23T05:54:12;115.80;;;51.10;;
19043;SDS011;9654;52.302;8.120;2023-02-23T05:56:39;113.53;;;49.83;;
19043;SDS011;9654;52.302;8.120;2023-02-23T05:59:06;119.93;;;49.00;;
19043;SDS011;9654;52.302;8.120;2023-02-23T06:01:34;124.93;;;50.27;;
19043;SDS011;9654;52.302;8.120;2023-02-23T06:04:01;114.17;;;46.53;;
19043;SDS011;9654;52.302;8.120;2023-02-23T06:06:28;120.57;;;49.40;;
19043;SDS011;9654;52.302;8.120;2023-02-23T06:08:55;119.30;;;49.50;;
19043;SDS011;9654;52.302;8.120;2023-02-23T06:11:22;127.33;;;49.33;;
19043;SDS011;9654;52.302;8.120;2023-02-23T06:13:48;116.33;;;47.43;;
19043;SDS011;9654;52.302;8.120;2023-02-23T06:16:16;123.93;;;48.37;;
19043;SDS011;9654;52.302;8.120;2023-02-23T06:18:44;124.93;;;49.70;;
19043;SDS011;9654;52.302;8.120;2023-02-23T06:21:11;133.83;;;51.47;;
19043;SDS011;9654;52.302;8.120;2023-02-23T06:23:38;141.93;;;51.73;;
19043;SDS011;9654;52.302;8.120;2023-02-23T06:26:05;149.20;;;54.17;;
19043;SDS011;9654;52.302;8.120;2023-02-23T06:28:32;155.10;;;54.70;;
19043;SDS011;9654;52.302;8.120;2023-02-23T06:30:59;153.67;;;54.70;;
19043;SDS011;9654;52.302;8.120;2023-02-23T06:33:26;156.50;;;54.30;;
19043;SDS011;9654;52.302;8.120;2023-02-23T06:35:54;138.80;;;48.87;;
19043;SDS011;9654;52.302;8.120;2023-02-23T06:38:21;139.20;;;50.50;;
19043;SDS011;9654;52.302;8.120;2023-02-23T06:40:47;142.73;;;49.90;;
19043;SDS011;9654;52.302;8.120;2023-02-23T06:43:14;153.20;;;54.37;;
19043;SDS011;9654;52.302;8.120;2023-02-23T06:45:41;148.97;;;52.60;;
19043;SDS011;9654;52.302;8.120;2023-02-23T06:48:08;154.40;;;54.07;;
19043;SDS011;9654;52.302;8.120;2023-02-23T06:50:35;141.10;;;52.80;;
19043;SDS011;9654;52.302;8.120;2023-02-23T06:53:03;150.93;;;52.40;;
19043;SDS011;9654;52.302;8.120;2023-02-23T06:55:30;136.30;;;50.07;;
19043;SDS011;9654;52.302;8.120;2023-02-23T06:57:57;147.80;;;52.40;;
19043;SDS011;9654;52.302;8.120;2023-02-23T07:00:24;147.30;;;52.87;;
19043;SDS011;9654;52.302;8.120;2023-02-23T07:02:51;149.90;;;52.20;;
19043;SDS011;9654;52.302;8.120;2023-02-23T07:05:17;145.97;;;50.13;;
19043;SDS011;9654;52.302;8.120;2023-02-23T07:07:47;157.80;;;54.27;;
19043;SDS011;9654;52.302;8.120;2023-02-23T07:10:17;147.03;;;50.13;;
19043;SDS011;9654;52.302;8.120;2023-02-23T07:12:44;138.77;;;49.20;;
19043;SDS011;9654;52.302;8.120;2023-02-23T07:15:11;143.77;;;50.27;;
19043;SDS011;9654;52.302;8.120;2023-02-23T07:17:42;148.93;;;51.37;;
19043;SDS011;9654;52.302;8.120;2023-02-23T07:20:12;142.53;;;51.23;;
19043;SDS011;9654;52.302;8.120;2023-02-23T07:22:39;158.83;;;53.83;;
19043;SDS011;9654;52.302;8.120;2023-02-23T07:25:06;151.20;;;52.07;;
19043;SDS011;9654;52.302;8.120;2023-02-23T07:27:35;151.10;;;53.60;;
19043;SDS011;9654;52.302;8.120;2023-02-23T07:30:02;149.97;;;52.23;;
19043;SDS011;9654;52.302;8.120;2023-02-23T07:32:30;150.77;;;52.70;;
19043;SDS011;9654;52.302;8.120;2023-02-23T07:34:57;157.03;;;50.83;;
19043;SDS011;9654;52.302;8.120;2023-02-23T07:37:23;157.13;;;51.27;;
19043;SDS011;9654;52.302;8.120;2023-02-23T07:39:50;145.23;;;51.73;;
19043;SDS011;9654;52.302;8.120;2023-02-23T07:42:17;162.40;;;52.33;;
19043;SDS011;9654;52.302;8.120;2023-02-23T07:44:45;151.30;;;51.63;;
19043;SDS011;9654;52.302;8.120;2023-02-23T07:47:11;147.63;;;52.17;;
19043;SDS011;9654;52.302;8.120;2023-02-23T07:49:38;145.80;;;50.33;;
19043;SDS011;9654;52.302;8.120;2023-02-23T07:52:05;151.90;;;51.17;;
19043;SDS011;9654;52.302;8.120;2023-02-23T07:54:32;147.43;;;48.63;;
19043;SDS011;9654;52.302;8.120;2023-02-23T07:56:59;151.50;;;50.77;;
19043;SDS011;9654;52.302;8.120;2023-02-23T07:59:25;158.97;;;51.07;;
19043;SDS011;9654;52.302;8.120;2023-02-23T08:01:53;155.30;;;51.17;;
19043;SDS011;9654;52.302;8.120;2023-02-23T08:04:20;152.33;;;52.10;;
19043;SDS011;9654;52.302;8.120;2023-02-23T08:06:47;153.90;;;51.10;;
19043;SDS011;9654;52.302;8.120;2023-02-23T08:09:14;156.87;;;51.23;;
19043;SDS011;9654;52.302;8.120;2023-02-23T08:11:40;150.30;;;49.47;;
19043;SDS011;9654;52.302;8.120;2023-02-23T08:14:07;151.87;;;50.87;;
19043;SDS011;9654;52.302;8.120;2023-02-23T08:16:34;152.00;;;49.60;;
19043;SDS011;9654;52.302;8.120;2023-02-23T08:19:02;149.03;;;50.33;;
19043;SDS011;9654;52.302;8.120;2023-02-23T08:21:29;155.73;;;50.77;;
19043;SDS011;9654;52.302;8.120;2023-02-23T08:23:56;157.73;;;51.50;;
19043;SDS011;9654;52.302;8.120;2023-02-23T08:26:24;155.07;;;50.50;;
19043;SDS011;9654;52.302;8.120;2023-02-23T08:28:51;166.23;;;52.07;;
19043;SDS011;9654;52.302;8.120;2023-02-23T08:31:18;158.10;;;52.77;;
19043;SDS011;9654;52.302;8.120;2023-02-23T08:33:47;151.43;;;47.73;;
19043;SDS011;9654;52.302;8.120;2023-02-23T08:36:15;150.43;;;48.30;;
19043;SDS011;9654;52.302;8.120;2023-02-23T08:38:42;164.47;;;54.63;;
19043;SDS011;9654;52.302;8.120;2023-02-23T08:41:09;161.53;;;48.13;;
19043;SDS011;9654;52.302;8.120;2023-02-23T08:43:35;153.00;;;49.80;;
19043;SDS011;9654;52.302;8.120;2023-02-23T08:46:03;154.10;;;49.90;;
19043;SDS011;9654;52.302;8.120;2023-02-23T08:48:30;146.33;;;48.87;;
19043;SDS011;9654;52.302;8.120;2023-02-23T08:50:57;149.30;;;49.47;;
19043;SDS011;9654;52.302;8.120;2023-02-23T08:53:26;154.83;;;49.47;;
19043;SDS011;9654;52.302;8.120;2023-02-23T08:55:54;154.83;;;48.63;;
19043;SDS011;9654;52.302;8.120;2023-02-23T08:58:22;156.63;;;49.53;;
19043;SDS011;9654;52.302;8.120;2023-02-23T09:00:49;152.13;;;47.37;;
19043;SDS011;9654;52.302;8.120;2023-02-23T09:03:16;152.67;;;49.13;;
19043;SDS011;9654;52.302;8.120;2023-02-23T09:05:42;163.77;;;47.17;;
19043;SDS011;9654;52.302;8.120;2023-02-23T09:08:09;153.23;;;45.77;;
19043;SDS011;9654;52.302;8.120;2023-02-23T09:10:38;154.00;;;46.87;;
19043;SDS011;9654;52.302;8.120;2023-02-23T09:13:07;151.53;;;50.33;;
19043;SDS011;9654;52.302;8.120;2023-02-23T09:15:34;156.40;;;52.13;;
19043;SDS011;9654;52.302;8.120;2023-02-23T09:18:01;148.87;;;48.53;;
19043;SDS011;9654;52.302;8.120;2023-02-23T09:20:28;156.93;;;47.17;;
19043;SDS011;9654;52.302;8.120;2023-02-23T09:22:55;158.60;;;48.83;;
19043;SDS011;9654;52.302;8.120;2023-02-23T09:25:22;149.30;;;48.53;;
19043;SDS011;9654;52.302;8.120;2023-02-23T09:27:50;149.03;;;48.17;;
19043;SDS011;9654;52.302;8.120;2023-02-23T09:30:20;151.97;;;46.77;;
19043;SDS011;9654;52.302;8.120;2023-02-23T09:32:47;154.57;;;50.13;;
19043;SDS011;9654;52.302;8.120;2023-02-23T09:35:15;157.80;;;48.77;;
19043;SDS011;9654;52.302;8.120;2023-02-23T09:37:42;151.07;;;47.93;;
19043;SDS011;9654;52.302;8.120;2023-02-23T09:40:13;149.80;;;51.10;;
19043;SDS011;9654;52.302;8.120;2023-02-23T09:42:42;157.77;;;48.57;;
19043;SDS011;9654;52.302;8.120;2023-02-23T09:45:19;163.97;;;49.20;;
19043;SDS011;9654;52.302;8.120;2023-02-23T09:47:55;150.80;;;49.10;;
19043;SDS011;9654;52.302;8.120;2023-02-23T09:50:30;155.63;;;48.53;;
19043;SDS011;9654;52.302;8.120;2023-02-23T09:53:00;164.13;;;49.50;;
19043;SDS011;9654;52.302;8.120;2023-02-23T09:55:31;158.43;;;50.03;;
19043;SDS011;9654;52.302;8.120;2023-02-23T09:58:01;162.63;;;51.07;;
19043;SDS011;9654;52.302;8.120;2023-02-23T10:00:35;163.17;;;51.07;;
19043;SDS011;9654;52.302;8.120;2023-02-23T10:03:11;155.97;;;49.83;;
19043;SDS011;9654;52.302;8.120;2023-02-23T10:05:45;157.93;;;49.87;;
19043;SDS011;9654;52.302;8.120;2023-02-23T10:08:21;162.17;;;51.03;;
19043;SDS011;9654;52.302;8.120;2023-02-23T10:10:58;156.70;;;49.40;;
19043;SDS011;9654;52.302;8.120;2023-02-23T10:13:34;150.67;;;48.50;;
19043;SDS011;9654;52.302;8.120;2023-02-23T10:16:09;150.93;;;49.67;;
19043;SDS011;9654;52.302;8.120;2023-02-23T10:18:45;150.07;;;48.30;;
19043;SDS011;9654;52.302;8.120;2023-02-23T10:21:22;135.83;;;46.07;;
19043;SDS011;9654;52.302;8.120;2023-02-23T10:23:57;141.20;;;46.37;;
19043;SDS011;9654;52.302;8.120;2023-02-23T10:26:27;128.43;;;44.80;;
19043;SDS011;9654;52.302;8.120;2023-02-23T10:29:02;133.17;;;42.57;;
19043;SDS011;9654;52.302;8.120;2023-02-23T10:31:35;132.60;;;43.37;;
19043;SDS011;9654;52.302;8.120;2023-02-23T10:34:09;137.37;;;42.27;;
19043;SDS011;9654;52.302;8.120;2023-02-23T10:36:40;111.63;;;38.67;;
19043;SDS011;9654;52.302;8.120;2023-02-23T10:39:12;122.30;;;39.47;;
19043;SDS011;9654;52.302;8.120;2023-02-23T10:41:40;112.67;;;38.87;;
19043;SDS011;9654;52.302;8.120;2023-02-23T10:44:10;125.00;;;40.83;;
19043;SDS011;9654;52.302;8.120;2023-02-23T10:46:45;119.03;;;39.13;;
19043;SDS011;9654;52.302;8.120;2023-02-23T10:49:17;110.27;;;35.97;;
19043;SDS011;9654;52.302;8.120;2023-02-23T10:51:47;110.23;;;37.10;;
19043;SDS011;9654;52.302;8.120;2023-02-23T10:57:08;104.40;;;34.47;;
19043;SDS011;9654;52.302;8.120;2023-02-23T10:59:41;101.47;;;35.20;;
19043;SDS011;9654;52.302;8.120;2023-02-23T11:02:27;102.63;;;33.63;;
19043;SDS011;9654;52.302;8.120;2023-02-23T11:04:58;98.03;;;34.90;;
19043;SDS011;9654;52.302;8.120;2023-02-23T11:07:26;86.77;;;30.03;;
19043;SDS011;9654;52.302;8.120;2023-02-23T11:09:55;96.43;;;30.63;;
19043;SDS011;9654;52.302;8.120;2023-02-23T11:12:22;87.37;;;31.20;;
19043;SDS011;9654;52.302;8.120;2023-02-23T11:14:52;83.53;;;28.90;;
19043;SDS011;9654;52.302;8.120;2023-02-23T11:17:25;82.53;;;28.03;;
19043;SDS011;9654;52.302;8.120;2023-02-23T11:19:56;75.30;;;28.03;;
19043;SDS011;9654;52.302;8.120;2023-02-23T11:22:28;80.90;;;28.93;;
19043;SDS011;9654;52.302;8.120;2023-02-23T11:24:57;79.90;;;28.80;;
19043;SDS011;9654;52.302;8.120;2023-02-23T11:27:26;73.93;;;28.33;;
19043;SDS011;9654;52.302;8.120;2023-02-23T11:29:53;85.60;;;30.57;;
19043;SDS011;9654;52.302;8.120;2023-02-23T11:32:25;83.87;;;31.07;;
19043;SDS011;9654;52.302;8.120;2023-02-23T11:35:24;79.93;;;30.03;;
19043;SDS011;9654;52.302;8.120;2023-02-23T11:37:53;80.90;;;31.17;;
19043;SDS011;9654;52.302;8.120;2023-02-23T11:40:21;74.97;;;29.70;;
19043;SDS011;9654;52.302;8.120;2023-02-23T11:42:50;71.67;;;28.90;;
19043;SDS011;9654;52.302;8.120;2023-02-23T11:45:19;73.07;;;29.57;;
19043;SDS011;9654;52.302;8.120;2023-02-23T11:47:49;80.37;;;29.87;;
19043;SDS011;9654;52.302;8.120;2023-02-23T11:50:20;74.87;;;29.57;;
19043;SDS011;9654;52.302;8.120;2023-02-23T11:52:50;71.33;;;28.53;;
19043;SDS011;9654;52.302;8.120;2023-02-23T11:55:21;71.30;;;29.27;;
19043;SDS011;9654;52.302;8.120;2023-02-23T11:57:49;76.43;;;29.60;;
19043;SDS011;9654;52.302;8.120;2023-02-23T12:00:20;73.67;;;30.27;;
19043;SDS011;9654;52.302;8.120;2023-02-23T12:02:52;76.73;;;29.70;;
19043;SDS011;9654;52.302;8.120;2023-02-23T12:05:23;74.30;;;29.63;;
19043;SDS011;9654;52.302;8.120;2023-02-23T12:07:53;68.30;;;27.70;;
19043;SDS011;9654;52.302;8.120;2023-02-23T12:10:25;70.60;;;28.07;;
19043;SDS011;9654;52.302;8.120;2023-02-23T12:12:57;63.37;;;24.93;;
19043;SDS011;9654;52.302;8.120;2023-02-23T12:15:35;63.47;;;25.87;;
19043;SDS011;9654;52.302;8.120;2023-02-23T12:18:13;63.30;;;26.50;;
19043;SDS011;9654;52.302;8.120;2023-02-23T12:20:49;66.40;;;26.47;;
19043;SDS011;9654;52.302;8.120;2023-02-23T12:23:20;61.40;;;26.13;;
19043;SDS011;9654;52.302;8.120;2023-02-23T12:25:51;67.27;;;26.07;;
19043;SDS011;9654;52.302;8.120;2023-02-23T12:28:24;63.47;;;25.70;;
19043;SDS011;9654;52.302;8.120;2023-02-23T12:30:57;62.80;;;26.10;;
19043;SDS011;9654;52.302;8.120;2023-02-23T12:33:30;56.73;;;24.10;;
19043;SDS011;9654;52.302;8.120;2023-02-23T12:36:03;61.73;;;24.23;;
19043;SDS011;9654;52.302;8.120;2023-02-23T12:38:43;51.77;;;21.80;;
19043;SDS011;9654;52.302;8.120;2023-02-23T12:41:17;54.17;;;22.43;;
19043;SDS011;9654;52.302;8.120;2023-02-23T12:43:51;49.67;;;21.17;;
19043;SDS011;9654;52.302;8.120;2023-02-23T12:46:24;52.37;;;21.23;;
19043;SDS011;9654;52.302;8.120;2023-02-23T12:48:59;52.07;;;20.50;;
19043;SDS011;9654;52.302;8.120;2023-02-23T12:51:32;55.33;;;21.50;;
19043;SDS011;9654;52.302;8.120;2023-02-23T12:54:01;47.80;;;19.17;;
19043;SDS011;9654;52.302;8.120;2023-02-23T12:56:31;52.40;;;19.83;;
19043;SDS011;9654;52.302;8.120;2023-02-23T12:59:10;46.67;;;19.20;;
19043;SDS011;9654;52.302;8.120;2023-02-23T13:01:45;42.47;;;18.30;;
19043;SDS011;9654;52.302;8.120;2023-02-23T13:04:24;41.83;;;16.53;;
19043;SDS011;9654;52.302;8.120;2023-02-23T13:07:12;46.33;;;18.33;;
19043;SDS011;9654;52.302;8.120;2023-02-23T13:09:48;42.87;;;17.13;;
19043;SDS011;9654;52.302;8.120;2023-02-23T13:12:28;41.77;;;16.53;;
19043;SDS011;9654;52.302;8.120;2023-02-23T13:15:16;43.37;;;17.17;;
19043;SDS011;9654;52.302;8.120;2023-02-23T13:17:53;47.10;;;17.97;;
19043;SDS011;9654;52.302;8.120;2023-02-23T13:20:27;42.90;;;15.33;;
19043;SDS011;9654;52.302;8.120;2023-02-23T13:23:00;42.63;;;15.50;;
19043;SDS011;9654;52.302;8.120;2023-02-23T13:25:36;39.60;;;16.67;;
19043;SDS011;9654;52.302;8.120;2023-02-23T13:28:11;43.03;;;16.60;;
19043;SDS011;9654;52.302;8.120;2023-02-23T13:30:42;47.43;;;16.93;;
19043;SDS011;9654;52.302;8.120;2023-02-23T13:33:13;45.30;;;18.47;;
19043;SDS011;9654;52.302;8.120;2023-02-23T13:35:51;47.40;;;17.73;;
19043;SDS011;9654;52.302;8.120;2023-02-23T13:38:19;45.33;;;16.80;;
19043;SDS011;9654;52.302;8.120;2023-02-23T13:40:58;43.10;;;16.97;;
19043;SDS011;9654;52.302;8.120;2023-02-23T13:43:31;48.60;;;19.07;;
19043;SDS011;9654;52.302;8.120;2023-02-23T13:46:08;47.53;;;18.53;;
19043;SDS011;9654;52.302;8.120;2023-02-23T13:48:45;41.03;;;16.50;;
19043;SDS011;9654;52.302;8.120;2023-02-23T13:51:22;43.17;;;18.57;;
19043;SDS011;9654;52.302;8.120;2023-02-23T13:53:58;46.97;;;17.47;;
19043;SDS011;9654;52.302;8.120;2023-02-23T13:56:27;50.20;;;17.47;;
19043;SDS011;9654;52.302;8.120;2023-02-23T13:58:57;45.13;;;18.43;;
19043;SDS011;9654;52.302;8.120;2023-02-23T14:01:27;48.00;;;18.70;;
19043;SDS011;9654;52.302;8.120;2023-02-23T14:03:58;50.90;;;18.90;;
19043;SDS011;9654;52.302;8.120;2023-02-23T14:06:28;49.17;;;19.07;;
19043;SDS011;9654;52.302;8.120;2023-02-23T14:08:58;48.17;;;20.00;;
19043;SDS011;9654;52.302;8.120;2023-02-23T14:11:40;49.30;;;18.33;;
19043;SDS011;9654;52.302;8.120;2023-02-23T14:14:13;45.00;;;17.93;;
19043;SDS011;9654;52.302;8.120;2023-02-23T14:20:05;48.60;;;18.37;;
19043;SDS011;9654;52.302;8.120;2023-02-23T14:25:49;48.37;;;17.83;;
19043;SDS011;9654;52.302;8.120;2023-02-23T14:28:24;54.40;;;19.03;;
19043;SDS011;9654;52.302;8.120;2023-02-23T14:31:00;54.67;;;19.40;;
19043;SDS011;9654;52.302;8.120;2023-02-23T14:33:34;53.60;;;20.30;;
19043;SDS011;9654;52.302;8.120;2023-02-23T14:39:02;51.50;;;19.93;;
19043;SDS011;9654;52.302;8.120;2023-02-23T14:41:37;53.57;;;19.37;;
19043;SDS011;9654;52.302;8.120;2023-02-23T14:44:11;52.00;;;19.17;;
19043;SDS011;9654;52.302;8.120;2023-02-23T14:46:46;51.97;;;19.37;;
19043;SDS011;9654;52.302;8.120;2023-02-23T14:49:16;54.17;;;20.40;;
19043;SDS011;9654;52.302;8.120;2023-02-23T14:51:45;56.13;;;19.93;;
19043;SDS011;9654;52.302;8.120;2023-02-23T14:54:21;46.37;;;18.73;;
19043;SDS011;9654;52.302;8.120;2023-02-23T14:56:52;53.27;;;18.90;;
19043;SDS011;9654;52.302;8.120;2023-02-23T14:59:22;47.27;;;17.37;;
19043;SDS011;9654;52.302;8.120;2023-02-23T15:01:52;45.50;;;17.73;;
19043;SDS011;9654;52.302;8.120;2023-02-23T15:04:21;50.80;;;17.33;;
19043;SDS011;9654;52.302;8.120;2023-02-23T15:06:51;49.27;;;17.87;;
19043;SDS011;9654;52.302;8.120;2023-02-23T15:09:22;49.50;;;18.70;;
19043;SDS011;9654;52.302;8.120;2023-02-23T15:11:57;51.23;;;18.60;;
19043;SDS011;9654;52.302;8.120;2023-02-23T15:14:27;48.60;;;17.80;;
19043;SDS011;9654;52.302;8.120;2023-02-23T15:16:57;55.50;;;17.63;;
19043;SDS011;9654;52.302;8.120;2023-02-23T15:19:24;41.63;;;17.17;;